S/y Galma — EA6149 — position and weather

sailwx.info

Track history (hours):
 
Tides and Currents Weather Stations Pressure Air Temp Water Temp Dewpoint Dewpoint Depression Visibility Wind Speed Wind Dir Waves Ship Positions

S/y Galma

Last reported at 2018-Jun-24 20:27 UTC. Time now 2018-Jun-24 20:27 UTC.
Position N 38°55' E 001°27'.

Length 28 m.

Type: Sailing vessel. MMSI: 224783490.

Date/timePositionNaut miles runAvg speedWind from/ knotsBaromVisibWave heightAir tempDewpointWater temp
2018-Jun-24 20:27N 38°55' E 001°27'0 0.0
2018-Jun-24 08:28N 38°55' E 001°27'0 0.0
2018-Jun-24 08:00N 38°55' E 001°27'0 0.0
2018-Jun-24 07:30N 38°55' E 001°27'0 0.0
2018-Jun-24 06:58N 38°55' E 001°27'0 0.0
2018-Jun-24 06:29N 38°55' E 001°27'0 0.0
2018-Jun-24 05:58N 38°55' E 001°27'0 0.0
2018-Jun-24 05:31N 38°55' E 001°27'0 0.0
2018-Jun-24 04:56N 38°55' E 001°27'0 0.0
2018-Jun-24 04:21N 38°55' E 001°27'0 0.0
2018-Jun-24 03:55N 38°55' E 001°27'0 0.0
2018-Jun-24 03:30N 38°55' E 001°27'0 0.0
2018-Jun-24 02:57N 38°55' E 001°27'0 0.0
2018-Jun-24 02:30N 38°55' E 001°27'0 0.0
2018-Jun-24 01:54N 38°55' E 001°27'0 0.0
2018-Jun-24 01:30N 38°55' E 001°27'0 0.0
2018-Jun-24 00:48N 38°55' E 001°27'0 0.0
2018-Jun-24 00:24N 38°55' E 001°27'0 0.0
2018-Jun-24 00:00N 38°55' E 001°27'0 0.0
2018-Jun-23 23:28N 38°55' E 001°27'0 0.0
2018-Jun-23 21:51N 38°55' E 001°27'0 0.0
2018-Jun-23 20:27N 38°55' E 001°27'0 0.0
2018-Jun-23 19:06N 38°55' E 001°27'0 0.0
2018-Jun-23 18:57N 38°55' E 001°27'0 0.0
2018-Jun-23 18:12N 38°55' E 001°27'0 0.0
2018-Jun-23 18:00N 38°55' E 001°27'1 2.5
2018-Jun-23 17:30N 38°54' E 001°27'1 0.4
2018-Jun-23 14:14N 38°55' E 001°27'0 0.0
2018-Jun-23 12:42N 38°55' E 001°27'0 0.7
2018-Jun-23 12:27N 38°55' E 001°27'1 1.9
2018-Jun-23 11:48N 38°53' E 001°27'1 2.4
2018-Jun-23 11:27N 38°53' E 001°26'1 2.4
2018-Jun-23 11:00N 38°52' E 001°26'1 1.4
2018-Jun-23 10:28N 38°52' E 001°27'3 5.7
2018-Jun-23 10:00N 38°55' E 001°27'0 0.2
2018-Jun-23 09:28N 38°55' E 001°27'0 0.0
2018-Jun-23 08:58N 38°55' E 001°27'0 0.0
2018-Jun-23 08:22N 38°55' E 001°27'0 0.0
2018-Jun-23 07:58N 38°55' E 001°27'0 0.0
2018-Jun-23 07:28N 38°55' E 001°27'0 0.0
2018-Jun-23 06:58N 38°55' E 001°27'0 0.0
2018-Jun-23 06:28N 38°55' E 001°27'0 0.0
2018-Jun-23 05:58N 38°55' E 001°27'0 0.0
2018-Jun-23 05:28N 38°55' E 001°27'0 0.0
2018-Jun-23 04:58N 38°55' E 001°27'0 0.0
2018-Jun-23 04:28N 38°55' E 001°27'0 0.0
2018-Jun-23 03:58N 38°55' E 001°27'0 0.0
2018-Jun-23 03:28N 38°55' E 001°27'0 0.0
2018-Jun-23 02:58N 38°55' E 001°27'0 0.0
2018-Jun-23 02:28N 38°55' E 001°27'0 0.0
2018-Jun-23 01:58N 38°55' E 001°27'0 0.0
2018-Jun-23 01:28N 38°55' E 001°27'0 0.0
2018-Jun-23 00:58N 38°55' E 001°27'0 0.0
2018-Jun-23 00:28N 38°55' E 001°27'0 0.0
2018-Jun-22 23:58N 38°55' E 001°27'0 0.0
2018-Jun-22 23:28N 38°55' E 001°27'0 0.0
2018-Jun-22 22:55N 38°55' E 001°27'0 0.0
2018-Jun-22 22:28N 38°55' E 001°27'0 0.0
2018-Jun-22 21:58N 38°55' E 001°27'0 0.0
2018-Jun-22 21:28N 38°55' E 001°27'0 0.0
2018-Jun-22 18:43N 38°55' E 001°27'0 0.0
2018-Jun-22 18:25N 38°55' E 001°27'0 0.0
2018-Jun-22 17:55N 38°55' E 001°27'1 3.0
2018-Jun-22 17:27N 38°53' E 001°27'1 0.4
2018-Jun-22 13:45N 38°55' E 001°27'0 0.0
2018-Jun-22 13:00N 38°55' E 001°27'0 0.0
2018-Jun-22 12:30N 38°55' E 001°27'0 0.0
2018-Jun-22 11:58N 38°55' E 001°27'0 0.0
2018-Jun-22 11:30N 38°55' E 001°27'0 0.0
2018-Jun-22 10:56N 38°55' E 001°27'4 7.5
2018-Jun-22 10:28N 38°51' E 001°27'2 4.5
2018-Jun-22 09:57N 38°54' E 001°28'2 3.2
2018-Jun-22 09:29N 38°55' E 001°27'0 0.0
2018-Jun-22 08:58N 38°55' E 001°27'0 0.0
2018-Jun-22 08:28N 38°55' E 001°27'0 0.0
2018-Jun-22 07:58N 38°55' E 001°27'0 0.0
2018-Jun-22 07:28N 38°55' E 001°27'0 0.0
2018-Jun-22 06:58N 38°55' E 001°27'0 0.0
2018-Jun-22 06:22N 38°55' E 001°27'0 0.0
2018-Jun-22 05:57N 38°55' E 001°27'0 0.0
2018-Jun-22 05:28N 38°55' E 001°27'0 0.0
2018-Jun-22 04:58N 38°55' E 001°27'0 0.0
2018-Jun-22 04:28N 38°55' E 001°27'0 0.0
2018-Jun-22 03:58N 38°55' E 001°27'0 0.0
2018-Jun-22 03:28N 38°55' E 001°27'0 0.0
2018-Jun-22 02:55N 38°55' E 001°27'0 0.0
2018-Jun-22 02:28N 38°55' E 001°27'0 0.0
2018-Jun-22 01:58N 38°55' E 001°27'0 0.0
2018-Jun-22 01:25N 38°55' E 001°27'0 0.0
2018-Jun-22 00:58N 38°55' E 001°27'0 0.0
2018-Jun-22 00:19N 38°55' E 001°27'0 0.0
2018-Jun-21 23:58N 38°55' E 001°27'0 0.0
2018-Jun-21 23:28N 38°55' E 001°27'0 0.0
2018-Jun-21 22:58N 38°55' E 001°27'0 0.0
2018-Jun-21 22:28N 38°55' E 001°27'0 0.0
2018-Jun-21 21:55N 38°55' E 001°27'0 0.0
2018-Jun-21 21:28N 38°55' E 001°27'0 0.0
2018-Jun-21 20:58N 38°55' E 001°27'0 0.0
2018-Jun-21 20:22N 38°55' E 001°27'0 0.0
2018-Jun-21 19:58N 38°55' E 001°27'0 0.0
2018-Jun-21 19:28N 38°55' E 001°27'0 0.0
2018-Jun-21 18:58N 38°55' E 001°27'0 0.0
2018-Jun-21 18:28N 38°55' E 001°27'0 0.0
2018-Jun-21 17:46N 38°55' E 001°27'0 0.0
2018-Jun-21 17:25N 38°55' E 001°27'0 0.0
2018-Jun-21 17:01N 38°55' E 001°27'1 0.0
2018-Jun-20 19:03N 38°54' E 001°27'0 0.0
2018-Jun-20 18:58N 38°54' E 001°27'57 9.7
2018-Jun-20 13:03N 39°26' E 002°29'110.5
2018-Jun-20 13:00N 39°26' E 002°29'510.5
2018-Jun-20 12:30N 39°29' E 002°35'5 9.8
2018-Jun-20 12:00N 39°33' E 002°38'1 1.6
2018-Jun-20 11:30N 39°34' E 002°38'0 0.0
2018-Jun-20 11:00N 39°34' E 002°38'0 0.0
2018-Jun-20 10:30N 39°34' E 002°38'0 0.0
2018-Jun-20 10:00N 39°34' E 002°38'0 0.0
2018-Jun-20 09:30N 39°34' E 002°38'0 0.0
2018-Jun-20 09:00N 39°34' E 002°38'0 0.0
2018-Jun-20 08:30N 39°34' E 002°38'0 0.0
2018-Jun-20 08:00N 39°34' E 002°38'0 0.0
2018-Jun-20 07:30N 39°34' E 002°38'0 0.0
2018-Jun-20 07:00N 39°34' E 002°38'0 0.0
2018-Jun-20 06:30N 39°34' E 002°38'0 0.0
2018-Jun-20 06:00N 39°34' E 002°38'0 0.0
2018-Jun-20 05:30N 39°34' E 002°38'0 0.0
2018-Jun-20 05:00N 39°34' E 002°38'0 0.0
2018-Jun-20 04:30N 39°34' E 002°38'0 0.0
2018-Jun-20 04:00N 39°34' E 002°38'0 0.0
2018-Jun-20 03:30N 39°34' E 002°38'0 0.0
2018-Jun-20 03:00N 39°34' E 002°38'0 0.0
2018-Jun-20 02:30N 39°34' E 002°38'0 0.0
2018-Jun-20 02:00N 39°34' E 002°38'0 0.0
2018-Jun-20 01:30N 39°34' E 002°38'0 0.0
2018-Jun-20 01:00N 39°34' E 002°38'0 0.0
2018-Jun-20 00:30N 39°34' E 002°38'0 0.0
2018-Jun-20 00:00N 39°34' E 002°38'0 0.0
2018-Jun-19 23:28N 39°34' E 002°38'0 0.0
2018-Jun-19 22:58N 39°34' E 002°38'0 0.0
2018-Jun-19 22:28N 39°34' E 002°38'0 0.0
2018-Jun-19 21:58N 39°34' E 002°38'0 0.0
2018-Jun-19 21:28N 39°34' E 002°38'0 0.0
2018-Jun-19 20:58N 39°34' E 002°38'0 0.0
2018-Jun-19 20:28N 39°34' E 002°38'0 0.0
2018-Jun-19 19:58N 39°34' E 002°38'0 0.0
2018-Jun-19 19:28N 39°34' E 002°38'0 0.0
2018-Jun-19 19:00N 39°34' E 002°38'0 0.0
2018-Jun-19 18:30N 39°34' E 002°38'0 0.0
2018-Jun-19 18:00N 39°34' E 002°38'0 0.0
2018-Jun-19 17:30N 39°34' E 002°38'0 0.0
2018-Jun-19 17:00N 39°34' E 002°38'0 0.0
2018-Jun-19 16:30N 39°34' E 002°38'0 0.0
2018-Jun-19 16:00N 39°34' E 002°38'0 0.0
2018-Jun-19 15:30N 39°34' E 002°38'0 0.0
2018-Jun-19 15:00N 39°34' E 002°38'0 0.0
2018-Jun-19 14:30N 39°34' E 002°38'0 0.0
2018-Jun-19 14:00N 39°34' E 002°38'0 0.0
2018-Jun-19 13:30N 39°34' E 002°38'0 0.0
2018-Jun-19 13:00N 39°34' E 002°38'0 0.0
2018-Jun-19 12:30N 39°34' E 002°38'0 0.0
2018-Jun-19 12:00N 39°34' E 002°38'0 0.0
2018-Jun-19 11:30N 39°34' E 002°38'0 0.0
2018-Jun-19 11:00N 39°34' E 002°38'0 0.0
2018-Jun-19 10:30N 39°34' E 002°38'0 0.0
2018-Jun-19 10:00N 39°34' E 002°38'0 0.0
2018-Jun-19 09:30N 39°34' E 002°38'0 0.0
2018-Jun-19 09:00N 39°34' E 002°38'0 0.0
2018-Jun-19 08:30N 39°34' E 002°38'0 0.0
2018-Jun-19 08:00N 39°34' E 002°38'0 0.0
2018-Jun-19 07:30N 39°34' E 002°38'0 0.0
2018-Jun-19 07:00N 39°34' E 002°38'0 0.0
2018-Jun-19 06:30N 39°34' E 002°38'0 0.0
2018-Jun-19 06:00N 39°34' E 002°38'0 0.0
2018-Jun-19 05:30N 39°34' E 002°38'0 0.0
2018-Jun-19 05:00N 39°34' E 002°38'0 0.0
2018-Jun-19 04:30N 39°34' E 002°38'0 0.0
2018-Jun-19 04:00N 39°34' E 002°38'0 0.0
2018-Jun-19 03:30N 39°34' E 002°38'0 0.0
2018-Jun-19 03:00N 39°34' E 002°38'0 0.0
2018-Jun-19 02:30N 39°34' E 002°38'0 0.0
2018-Jun-19 02:00N 39°34' E 002°38'0 0.0
2018-Jun-19 01:30N 39°34' E 002°38'0 0.0
2018-Jun-19 01:00N 39°34' E 002°38'0 0.0
2018-Jun-19 00:27N 39°34' E 002°38'0 0.0
2018-Jun-19 00:00N 39°34' E 002°38'0 0.0
2018-Jun-18 23:30N 39°34' E 002°38'0 0.0
2018-Jun-18 23:00N 39°34' E 002°38'0 0.0
2018-Jun-18 22:30N 39°34' E 002°38'0 0.0
2018-Jun-18 22:00N 39°34' E 002°38'0 0.0
2018-Jun-18 21:30N 39°34' E 002°38'0 0.0
2018-Jun-18 20:58N 39°34' E 002°38'0 0.0
2018-Jun-18 20:28N 39°34' E 002°38'0 0.0
2018-Jun-18 19:58N 39°34' E 002°38'0 0.0
2018-Jun-18 19:28N 39°34' E 002°38'0 0.0
2018-Jun-18 18:58N 39°34' E 002°38'0 0.0
2018-Jun-18 18:28N 39°34' E 002°38'0 0.0
2018-Jun-18 17:58N 39°34' E 002°38'0 0.0
2018-Jun-18 17:28N 39°34' E 002°38'0 0.0
2018-Jun-18 16:58N 39°34' E 002°38'0 0.0
2018-Jun-18 16:28N 39°34' E 002°38'0 0.0
2018-Jun-18 15:58N 39°34' E 002°38'0 0.0
2018-Jun-18 15:28N 39°34' E 002°38'0 0.0
2018-Jun-18 14:58N 39°34' E 002°38'0 0.0
2018-Jun-18 14:28N 39°34' E 002°38'0 0.0
2018-Jun-18 13:58N 39°34' E 002°38'0 0.0
2018-Jun-18 13:28N 39°34' E 002°38'0 0.0
2018-Jun-18 12:58N 39°34' E 002°38'0 0.0
2018-Jun-18 12:28N 39°34' E 002°38'0 0.0
2018-Jun-18 11:58N 39°34' E 002°38'0 0.0
2018-Jun-18 11:25N 39°34' E 002°38'0 0.0
2018-Jun-18 10:58N 39°34' E 002°38'0 0.0
2018-Jun-18 10:28N 39°34' E 002°38'0 0.0
2018-Jun-18 09:58N 39°34' E 002°38'0 0.0
2018-Jun-18 09:28N 39°34' E 002°38'0 0.0
2018-Jun-18 08:58N 39°34' E 002°38'0 0.0
2018-Jun-18 08:28N 39°34' E 002°38'0 0.0
2018-Jun-18 07:58N 39°34' E 002°38'0 0.0
2018-Jun-18 07:28N 39°34' E 002°38'0 0.0
2018-Jun-18 06:58N 39°34' E 002°38'0 0.0
2018-Jun-18 06:28N 39°34' E 002°38'0 0.0
2018-Jun-18 05:58N 39°34' E 002°38'0 0.0
2018-Jun-18 05:28N 39°34' E 002°38'0 0.0
2018-Jun-18 04:58N 39°34' E 002°38'0 0.0
2018-Jun-18 04:28N 39°34' E 002°38'0 0.0
2018-Jun-18 03:58N 39°34' E 002°38'0 0.0
2018-Jun-18 03:28N 39°34' E 002°38'0 0.0
2018-Jun-18 02:58N 39°34' E 002°38'0 0.0
2018-Jun-18 02:31N 39°34' E 002°38'0 0.0
2018-Jun-18 01:58N 39°34' E 002°38'0 0.0
2018-Jun-18 01:30N 39°34' E 002°38'0 0.0
2018-Jun-18 01:00N 39°34' E 002°38'0 0.0
2018-Jun-18 00:30N 39°34' E 002°38'0 0.0
2018-Jun-18 00:00N 39°34' E 002°38'0 0.0
2018-Jun-17 23:30N 39°34' E 002°38'3 5.3
2018-Jun-17 23:00N 39°31' E 002°37'710.1
2018-Jun-17 22:20N 39°26' E 002°31'5910.6
2018-Jun-17 16:47N 38°54' E 001°27'12 0.4
2018-Jun-16 11:26N 38°42' E 001°23'0 0.0
2018-Jun-16 10:56N 38°42' E 001°23'4 0.4
2018-Jun-16 01:06N 38°45' E 001°27'0 0.0
2018-Jun-16 00:48N 38°45' E 001°27'0 0.0
2018-Jun-15 17:35N 38°45' E 001°27'60 6.5
2018-Jun-15 08:22N 39°23' E 002°27'4 9.6
2018-Jun-15 07:59N 39°25' E 002°30'5 9.9
2018-Jun-15 07:30N 39°29' E 002°34'510.2
2018-Jun-15 07:00N 39°33' E 002°38'1 1.5
2018-Jun-15 06:24N 39°34' E 002°38'0 0.0
2018-Jun-15 06:00N 39°34' E 002°38'0 0.0
2018-Jun-15 05:30N 39°34' E 002°38'0 0.0
2018-Jun-15 05:00N 39°34' E 002°38'0 0.0
2018-Jun-15 04:30N 39°34' E 002°38'0 0.0
2018-Jun-15 04:00N 39°34' E 002°38'0 0.0
2018-Jun-15 03:30N 39°34' E 002°38'0 0.0
2018-Jun-15 03:00N 39°34' E 002°38'0 0.0
2018-Jun-15 02:30N 39°34' E 002°38'0 0.0
2018-Jun-15 02:00N 39°34' E 002°38'0 0.0
2018-Jun-15 01:30N 39°34' E 002°38'0 0.0
2018-Jun-15 01:00N 39°34' E 002°38'0 0.0
2018-Jun-15 00:30N 39°34' E 002°38'0 0.0
2018-Jun-15 00:00N 39°34' E 002°38'0 0.0
2018-Jun-14 23:30N 39°34' E 002°38'0 0.0
2018-Jun-14 23:00N 39°34' E 002°38'0 0.0
2018-Jun-14 22:30N 39°34' E 002°38'0 0.0
2018-Jun-14 22:00N 39°34' E 002°38'0 0.0
2018-Jun-14 21:27N 39°34' E 002°38'0 0.0
2018-Jun-14 21:00N 39°34' E 002°38'0 0.0
2018-Jun-14 20:28N 39°34' E 002°38'0 0.0
2018-Jun-14 19:58N 39°34' E 002°38'0 0.0
2018-Jun-14 19:28N 39°34' E 002°38'0 0.0
2018-Jun-14 18:58N 39°34' E 002°38'0 0.0
2018-Jun-14 18:28N 39°34' E 002°38'0 0.0
2018-Jun-14 17:58N 39°34' E 002°38'0 0.0
2018-Jun-14 17:30N 39°34' E 002°38'0 0.0
2018-Jun-14 17:00N 39°34' E 002°38'0 0.0
2018-Jun-14 16:30N 39°34' E 002°38'0 0.0
2018-Jun-14 16:00N 39°34' E 002°38'0 0.0
2018-Jun-14 15:30N 39°34' E 002°38'0 0.0
2018-Jun-14 15:00N 39°34' E 002°38'0 0.0
2018-Jun-14 14:30N 39°34' E 002°38'0 0.0
2018-Jun-14 14:00N 39°34' E 002°38'0 0.0
2018-Jun-14 13:30N 39°34' E 002°38'0 0.0
2018-Jun-14 13:00N 39°34' E 002°38'0 0.0
2018-Jun-14 12:30N 39°34' E 002°38'0 0.0
2018-Jun-14 12:00N 39°34' E 002°38'0 0.0
2018-Jun-14 11:30N 39°34' E 002°38'0 0.0
2018-Jun-14 11:00N 39°34' E 002°38'0 0.0
2018-Jun-14 10:30N 39°34' E 002°38'0 0.0
2018-Jun-14 10:00N 39°34' E 002°38'0 0.0
2018-Jun-14 09:30N 39°34' E 002°38'0 0.0
2018-Jun-14 09:00N 39°34' E 002°38'  
Track history (hours):
 
Tides and Currents Weather Stations Pressure Air Temp Water Temp Dewpoint Dewpoint Depression Visibility Wind Speed Wind Dir Waves Ship Positions

S/y Galma

Last reported at 2018-Jun-24 20:27 UTC. Time now 2018-Jun-24 20:27 UTC.
Position N 38°55' E 001°27'.

Length 28 m.

Type: Sailing vessel. MMSI: 224783490.

Date/timePositionNaut miles runAvg speedWind from/ knotsBaromVisibWave heightAir tempDewpointWater temp
2018-Jun-24 20:27N 38°55' E 001°27'0 0.0
2018-Jun-24 08:28N 38°55' E 001°27'0 0.0
2018-Jun-24 08:00N 38°55' E 001°27'0 0.0
2018-Jun-24 07:30N 38°55' E 001°27'0 0.0
2018-Jun-24 06:58N 38°55' E 001°27'0 0.0
2018-Jun-24 06:29N 38°55' E 001°27'0 0.0
2018-Jun-24 05:58N 38°55' E 001°27'0 0.0
2018-Jun-24 05:31N 38°55' E 001°27'0 0.0
2018-Jun-24 04:56N 38°55' E 001°27'0 0.0
2018-Jun-24 04:21N 38°55' E 001°27'0 0.0
2018-Jun-24 03:55N 38°55' E 001°27'0 0.0
2018-Jun-24 03:30N 38°55' E 001°27'0 0.0
2018-Jun-24 02:57N 38°55' E 001°27'0 0.0
2018-Jun-24 02:30N 38°55' E 001°27'0 0.0
2018-Jun-24 01:54N 38°55' E 001°27'0 0.0
2018-Jun-24 01:30N 38°55' E 001°27'0 0.0
2018-Jun-24 00:48N 38°55' E 001°27'0 0.0
2018-Jun-24 00:24N 38°55' E 001°27'0 0.0
2018-Jun-24 00:00N 38°55' E 001°27'0 0.0
2018-Jun-23 23:28N 38°55' E 001°27'0 0.0
2018-Jun-23 21:51N 38°55' E 001°27'0 0.0
2018-Jun-23 20:27N 38°55' E 001°27'0 0.0
2018-Jun-23 19:06N 38°55' E 001°27'0 0.0
2018-Jun-23 18:57N 38°55' E 001°27'0 0.0
2018-Jun-23 18:12N 38°55' E 001°27'0 0.0
2018-Jun-23 18:00N 38°55' E 001°27'1 2.5
2018-Jun-23 17:30N 38°54' E 001°27'1 0.4
2018-Jun-23 14:14N 38°55' E 001°27'0 0.0
2018-Jun-23 12:42N 38°55' E 001°27'0 0.7
2018-Jun-23 12:27N 38°55' E 001°27'1 1.9
2018-Jun-23 11:48N 38°53' E 001°27'1 2.4
2018-Jun-23 11:27N 38°53' E 001°26'1 2.4
2018-Jun-23 11:00N 38°52' E 001°26'1 1.4
2018-Jun-23 10:28N 38°52' E 001°27'3 5.7
2018-Jun-23 10:00N 38°55' E 001°27'0 0.2
2018-Jun-23 09:28N 38°55' E 001°27'0 0.0
2018-Jun-23 08:58N 38°55' E 001°27'0 0.0
2018-Jun-23 08:22N 38°55' E 001°27'0 0.0
2018-Jun-23 07:58N 38°55' E 001°27'0 0.0
2018-Jun-23 07:28N 38°55' E 001°27'0 0.0
2018-Jun-23 06:58N 38°55' E 001°27'0 0.0
2018-Jun-23 06:28N 38°55' E 001°27'0 0.0
2018-Jun-23 05:58N 38°55' E 001°27'0 0.0
2018-Jun-23 05:28N 38°55' E 001°27'0 0.0
2018-Jun-23 04:58N 38°55' E 001°27'0 0.0
2018-Jun-23 04:28N 38°55' E 001°27'0 0.0
2018-Jun-23 03:58N 38°55' E 001°27'0 0.0
2018-Jun-23 03:28N 38°55' E 001°27'0 0.0
2018-Jun-23 02:58N 38°55' E 001°27'0 0.0
2018-Jun-23 02:28N 38°55' E 001°27'0 0.0
2018-Jun-23 01:58N 38°55' E 001°27'0 0.0
2018-Jun-23 01:28N 38°55' E 001°27'0 0.0
2018-Jun-23 00:58N 38°55' E 001°27'0 0.0
2018-Jun-23 00:28N 38°55' E 001°27'0 0.0
2018-Jun-22 23:58N 38°55' E 001°27'0 0.0
2018-Jun-22 23:28N 38°55' E 001°27'0 0.0
2018-Jun-22 22:55N 38°55' E 001°27'0 0.0
2018-Jun-22 22:28N 38°55' E 001°27'0 0.0
2018-Jun-22 21:58N 38°55' E 001°27'0 0.0
2018-Jun-22 21:28N 38°55' E 001°27'0 0.0
2018-Jun-22 18:43N 38°55' E 001°27'0 0.0
2018-Jun-22 18:25N 38°55' E 001°27'0 0.0
2018-Jun-22 17:55N 38°55' E 001°27'1 3.0
2018-Jun-22 17:27N 38°53' E 001°27'1 0.4
2018-Jun-22 13:45N 38°55' E 001°27'0 0.0
2018-Jun-22 13:00N 38°55' E 001°27'0 0.0
2018-Jun-22 12:30N 38°55' E 001°27'0 0.0
2018-Jun-22 11:58N 38°55' E 001°27'0 0.0
2018-Jun-22 11:30N 38°55' E 001°27'0 0.0
2018-Jun-22 10:56N 38°55' E 001°27'4 7.5
2018-Jun-22 10:28N 38°51' E 001°27'2 4.5
2018-Jun-22 09:57N 38°54' E 001°28'2 3.2
2018-Jun-22 09:29N 38°55' E 001°27'0 0.0
2018-Jun-22 08:58N 38°55' E 001°27'0 0.0
2018-Jun-22 08:28N 38°55' E 001°27'0 0.0
2018-Jun-22 07:58N 38°55' E 001°27'0 0.0
2018-Jun-22 07:28N 38°55' E 001°27'0 0.0
2018-Jun-22 06:58N 38°55' E 001°27'0 0.0
2018-Jun-22 06:22N 38°55' E 001°27'0 0.0
2018-Jun-22 05:57N 38°55' E 001°27'0 0.0
2018-Jun-22 05:28N 38°55' E 001°27'0 0.0
2018-Jun-22 04:58N 38°55' E 001°27'0 0.0
2018-Jun-22 04:28N 38°55' E 001°27'0 0.0
2018-Jun-22 03:58N 38°55' E 001°27'0 0.0
2018-Jun-22 03:28N 38°55' E 001°27'0 0.0
2018-Jun-22 02:55N 38°55' E 001°27'0 0.0
2018-Jun-22 02:28N 38°55' E 001°27'0 0.0
2018-Jun-22 01:58N 38°55' E 001°27'0 0.0
2018-Jun-22 01:25N 38°55' E 001°27'0 0.0
2018-Jun-22 00:58N 38°55' E 001°27'0 0.0
2018-Jun-22 00:19N 38°55' E 001°27'0 0.0
2018-Jun-21 23:58N 38°55' E 001°27'0 0.0
2018-Jun-21 23:28N 38°55' E 001°27'0 0.0
2018-Jun-21 22:58N 38°55' E 001°27'0 0.0
2018-Jun-21 22:28N 38°55' E 001°27'0 0.0
2018-Jun-21 21:55N 38°55' E 001°27'0 0.0
2018-Jun-21 21:28N 38°55' E 001°27'0 0.0
2018-Jun-21 20:58N 38°55' E 001°27'0 0.0
2018-Jun-21 20:22N 38°55' E 001°27'0 0.0
2018-Jun-21 19:58N 38°55' E 001°27'0 0.0
2018-Jun-21 19:28N 38°55' E 001°27'0 0.0
2018-Jun-21 18:58N 38°55' E 001°27'0 0.0
2018-Jun-21 18:28N 38°55' E 001°27'0 0.0
2018-Jun-21 17:46N 38°55' E 001°27'0 0.0
2018-Jun-21 17:25N 38°55' E 001°27'0 0.0
2018-Jun-21 17:01N 38°55' E 001°27'1 0.0
2018-Jun-20 19:03N 38°54' E 001°27'0 0.0
2018-Jun-20 18:58N 38°54' E 001°27'57 9.7
2018-Jun-20 13:03N 39°26' E 002°29'110.5
2018-Jun-20 13:00N 39°26' E 002°29'510.5
2018-Jun-20 12:30N 39°29' E 002°35'5 9.8
2018-Jun-20 12:00N 39°33' E 002°38'1 1.6
2018-Jun-20 11:30N 39°34' E 002°38'0 0.0
2018-Jun-20 11:00N 39°34' E 002°38'0 0.0
2018-Jun-20 10:30N 39°34' E 002°38'0 0.0
2018-Jun-20 10:00N 39°34' E 002°38'0 0.0
2018-Jun-20 09:30N 39°34' E 002°38'0 0.0
2018-Jun-20 09:00N 39°34' E 002°38'0 0.0
2018-Jun-20 08:30N 39°34' E 002°38'0 0.0
2018-Jun-20 08:00N 39°34' E 002°38'0 0.0
2018-Jun-20 07:30N 39°34' E 002°38'0 0.0
2018-Jun-20 07:00N 39°34' E 002°38'0 0.0
2018-Jun-20 06:30N 39°34' E 002°38'0 0.0
2018-Jun-20 06:00N 39°34' E 002°38'0 0.0
2018-Jun-20 05:30N 39°34' E 002°38'0 0.0
2018-Jun-20 05:00N 39°34' E 002°38'0 0.0
2018-Jun-20 04:30N 39°34' E 002°38'0 0.0
2018-Jun-20 04:00N 39°34' E 002°38'0 0.0
2018-Jun-20 03:30N 39°34' E 002°38'0 0.0
2018-Jun-20 03:00N 39°34' E 002°38'0 0.0
2018-Jun-20 02:30N 39°34' E 002°38'0 0.0
2018-Jun-20 02:00N 39°34' E 002°38'0 0.0
2018-Jun-20 01:30N 39°34' E 002°38'0 0.0
2018-Jun-20 01:00N 39°34' E 002°38'0 0.0
2018-Jun-20 00:30N 39°34' E 002°38'0 0.0
2018-Jun-20 00:00N 39°34' E 002°38'0 0.0
2018-Jun-19 23:28N 39°34' E 002°38'0 0.0
2018-Jun-19 22:58N 39°34' E 002°38'0 0.0
2018-Jun-19 22:28N 39°34' E 002°38'0 0.0
2018-Jun-19 21:58N 39°34' E 002°38'0 0.0
2018-Jun-19 21:28N 39°34' E 002°38'0 0.0
2018-Jun-19 20:58N 39°34' E 002°38'0 0.0
2018-Jun-19 20:28N 39°34' E 002°38'0 0.0
2018-Jun-19 19:58N 39°34' E 002°38'0 0.0
2018-Jun-19 19:28N 39°34' E 002°38'0 0.0
2018-Jun-19 19:00N 39°34' E 002°38'0 0.0
2018-Jun-19 18:30N 39°34' E 002°38'0 0.0
2018-Jun-19 18:00N 39°34' E 002°38'0 0.0
2018-Jun-19 17:30N 39°34' E 002°38'0 0.0
2018-Jun-19 17:00N 39°34' E 002°38'0 0.0
2018-Jun-19 16:30N 39°34' E 002°38'0 0.0
2018-Jun-19 16:00N 39°34' E 002°38'0 0.0
2018-Jun-19 15:30N 39°34' E 002°38'0 0.0
2018-Jun-19 15:00N 39°34' E 002°38'0 0.0
2018-Jun-19 14:30N 39°34' E 002°38'0 0.0
2018-Jun-19 14:00N 39°34' E 002°38'0 0.0
2018-Jun-19 13:30N 39°34' E 002°38'0 0.0
2018-Jun-19 13:00N 39°34' E 002°38'0 0.0
2018-Jun-19 12:30N 39°34' E 002°38'0 0.0
2018-Jun-19 12:00N 39°34' E 002°38'0 0.0
2018-Jun-19 11:30N 39°34' E 002°38'0 0.0
2018-Jun-19 11:00N 39°34' E 002°38'0 0.0
2018-Jun-19 10:30N 39°34' E 002°38'0 0.0
2018-Jun-19 10:00N 39°34' E 002°38'0 0.0
2018-Jun-19 09:30N 39°34' E 002°38'0 0.0
2018-Jun-19 09:00N 39°34' E 002°38'0 0.0
2018-Jun-19 08:30N 39°34' E 002°38'0 0.0
2018-Jun-19 08:00N 39°34' E 002°38'0 0.0
2018-Jun-19 07:30N 39°34' E 002°38'0 0.0
2018-Jun-19 07:00N 39°34' E 002°38'0 0.0
2018-Jun-19 06:30N 39°34' E 002°38'0 0.0
2018-Jun-19 06:00N 39°34' E 002°38'0 0.0
2018-Jun-19 05:30N 39°34' E 002°38'0 0.0
2018-Jun-19 05:00N 39°34' E 002°38'0 0.0
2018-Jun-19 04:30N 39°34' E 002°38'0 0.0
2018-Jun-19 04:00N 39°34' E 002°38'0 0.0
2018-Jun-19 03:30N 39°34' E 002°38'0 0.0
2018-Jun-19 03:00N 39°34' E 002°38'0 0.0
2018-Jun-19 02:30N 39°34' E 002°38'0 0.0
2018-Jun-19 02:00N 39°34' E 002°38'0 0.0
2018-Jun-19 01:30N 39°34' E 002°38'0 0.0
2018-Jun-19 01:00N 39°34' E 002°38'0 0.0
2018-Jun-19 00:27N 39°34' E 002°38'0 0.0
2018-Jun-19 00:00N 39°34' E 002°38'0 0.0
2018-Jun-18 23:30N 39°34' E 002°38'0 0.0
2018-Jun-18 23:00N 39°34' E 002°38'0 0.0
2018-Jun-18 22:30N 39°34' E 002°38'0 0.0
2018-Jun-18 22:00N 39°34' E 002°38'0 0.0
2018-Jun-18 21:30N 39°34' E 002°38'0 0.0
2018-Jun-18 20:58N 39°34' E 002°38'0 0.0
2018-Jun-18 20:28N 39°34' E 002°38'0 0.0
2018-Jun-18 19:58N 39°34' E 002°38'0 0.0
2018-Jun-18 19:28N 39°34' E 002°38'0 0.0
2018-Jun-18 18:58N 39°34' E 002°38'0 0.0
2018-Jun-18 18:28N 39°34' E 002°38'0 0.0
2018-Jun-18 17:58N 39°34' E 002°38'0 0.0
2018-Jun-18 17:28N 39°34' E 002°38'0 0.0
2018-Jun-18 16:58N 39°34' E 002°38'0 0.0
2018-Jun-18 16:28N 39°34' E 002°38'0 0.0
2018-Jun-18 15:58N 39°34' E 002°38'0 0.0
2018-Jun-18 15:28N 39°34' E 002°38'0 0.0
2018-Jun-18 14:58N 39°34' E 002°38'0 0.0
2018-Jun-18 14:28N 39°34' E 002°38'0 0.0
2018-Jun-18 13:58N 39°34' E 002°38'0 0.0
2018-Jun-18 13:28N 39°34' E 002°38'0 0.0
2018-Jun-18 12:58N 39°34' E 002°38'0 0.0
2018-Jun-18 12:28N 39°34' E 002°38'0 0.0
2018-Jun-18 11:58N 39°34' E 002°38'0 0.0
2018-Jun-18 11:25N 39°34' E 002°38'0 0.0
2018-Jun-18 10:58N 39°34' E 002°38'0 0.0
2018-Jun-18 10:28N 39°34' E 002°38'0 0.0
2018-Jun-18 09:58N 39°34' E 002°38'0 0.0
2018-Jun-18 09:28N 39°34' E 002°38'0 0.0
2018-Jun-18 08:58N 39°34' E 002°38'0 0.0
2018-Jun-18 08:28N 39°34' E 002°38'0 0.0
2018-Jun-18 07:58N 39°34' E 002°38'0 0.0
2018-Jun-18 07:28N 39°34' E 002°38'0 0.0
2018-Jun-18 06:58N 39°34' E 002°38'0 0.0
2018-Jun-18 06:28N 39°34' E 002°38'0 0.0
2018-Jun-18 05:58N 39°34' E 002°38'0 0.0
2018-Jun-18 05:28N 39°34' E 002°38'0 0.0
2018-Jun-18 04:58N 39°34' E 002°38'0 0.0
2018-Jun-18 04:28N 39°34' E 002°38'0 0.0
2018-Jun-18 03:58N 39°34' E 002°38'0 0.0
2018-Jun-18 03:28N 39°34' E 002°38'0 0.0
2018-Jun-18 02:58N 39°34' E 002°38'0 0.0
2018-Jun-18 02:31N 39°34' E 002°38'0 0.0
2018-Jun-18 01:58N 39°34' E 002°38'0 0.0
2018-Jun-18 01:30N 39°34' E 002°38'0 0.0
2018-Jun-18 01:00N 39°34' E 002°38'0 0.0
2018-Jun-18 00:30N 39°34' E 002°38'0 0.0
2018-Jun-18 00:00N 39°34' E 002°38'0 0.0
2018-Jun-17 23:30N 39°34' E 002°38'3 5.3
2018-Jun-17 23:00N 39°31' E 002°37'710.1
2018-Jun-17 22:20N 39°26' E 002°31'5910.6
2018-Jun-17 16:47N 38°54' E 001°27'12 0.4
2018-Jun-16 11:26N 38°42' E 001°23'0 0.0
2018-Jun-16 10:56N 38°42' E 001°23'4 0.4
2018-Jun-16 01:06N 38°45' E 001°27'0 0.0
2018-Jun-16 00:48N 38°45' E 001°27'0 0.0
2018-Jun-15 17:35N 38°45' E 001°27'60 6.5
2018-Jun-15 08:22N 39°23' E 002°27'4 9.6
2018-Jun-15 07:59N 39°25' E 002°30'5 9.9
2018-Jun-15 07:30N 39°29' E 002°34'510.2
2018-Jun-15 07:00N 39°33' E 002°38'1 1.5
2018-Jun-15 06:24N 39°34' E 002°38'0 0.0
2018-Jun-15 06:00N 39°34' E 002°38'0 0.0
2018-Jun-15 05:30N 39°34' E 002°38'0 0.0
2018-Jun-15 05:00N 39°34' E 002°38'0 0.0
2018-Jun-15 04:30N 39°34' E 002°38'0 0.0
2018-Jun-15 04:00N 39°34' E 002°38'0 0.0
2018-Jun-15 03:30N 39°34' E 002°38'0 0.0
2018-Jun-15 03:00N 39°34' E 002°38'0 0.0
2018-Jun-15 02:30N 39°34' E 002°38'0 0.0
2018-Jun-15 02:00N 39°34' E 002°38'0 0.0
2018-Jun-15 01:30N 39°34' E 002°38'0 0.0
2018-Jun-15 01:00N 39°34' E 002°38'0 0.0
2018-Jun-15 00:30N 39°34' E 002°38'0 0.0
2018-Jun-15 00:00N 39°34' E 002°38'0 0.0
2018-Jun-14 23:30N 39°34' E 002°38'0 0.0
2018-Jun-14 23:00N 39°34' E 002°38'0 0.0
2018-Jun-14 22:30N 39°34' E 002°38'0 0.0
2018-Jun-14 22:00N 39°34' E 002°38'0 0.0
2018-Jun-14 21:27N 39°34' E 002°38'0 0.0
2018-Jun-14 21:00N 39°34' E 002°38'0 0.0
2018-Jun-14 20:28N 39°34' E 002°38'0 0.0
2018-Jun-14 19:58N 39°34' E 002°38'0 0.0
2018-Jun-14 19:28N 39°34' E 002°38'0 0.0
2018-Jun-14 18:58N 39°34' E 002°38'0 0.0
2018-Jun-14 18:28N 39°34' E 002°38'0 0.0
2018-Jun-14 17:58N 39°34' E 002°38'0 0.0
2018-Jun-14 17:30N 39°34' E 002°38'0 0.0
2018-Jun-14 17:00N 39°34' E 002°38'0 0.0
2018-Jun-14 16:30N 39°34' E 002°38'0 0.0
2018-Jun-14 16:00N 39°34' E 002°38'0 0.0
2018-Jun-14 15:30N 39°34' E 002°38'0 0.0
2018-Jun-14 15:00N 39°34' E 002°38'0 0.0
2018-Jun-14 14:30N 39°34' E 002°38'0 0.0
2018-Jun-14 14:00N 39°34' E 002°38'0 0.0
2018-Jun-14 13:30N 39°34' E 002°38'0 0.0
2018-Jun-14 13:00N 39°34' E 002°38'0 0.0
2018-Jun-14 12:30N 39°34' E 002°38'0 0.0
2018-Jun-14 12:00N 39°34' E 002°38'0 0.0
2018-Jun-14 11:30N 39°34' E 002°38'0 0.0
2018-Jun-14 11:00N 39°34' E 002°38'0 0.0
2018-Jun-14 10:30N 39°34' E 002°38'0 0.0
2018-Jun-14 10:00N 39°34' E 002°38'0 0.0
2018-Jun-14 09:30N 39°34' E 002°38'0 0.0
2018-Jun-14 09:00N 39°34' E 002°38'  

Dump ship's entire track history